createdAt,value
2018-12-12T00:01:59.780Z,101846.41
2018-12-12T00:07:10.935Z,101849.16
2018-12-12T00:12:23.024Z,101850.70
2018-12-12T00:17:34.666Z,101856.75
2018-12-12T00:22:47.601Z,101867.58
2018-12-12T00:27:58.709Z,101858.27
2018-12-12T00:33:07.397Z,101854.09
2018-12-12T00:38:19.041Z,101841.41
2018-12-12T00:43:31.056Z,101832.41
2018-12-12T00:48:42.147Z,101827.36
2018-12-12T00:53:54.240Z,101826.59
2018-12-12T00:59:05.884Z,101833.59
2018-12-12T01:04:17.841Z,101840.41
2018-12-12T01:09:29.146Z,101844.77
2018-12-12T01:14:45.074Z,101849.84
2018-12-12T01:19:56.567Z,101847.98
2018-12-12T01:25:08.545Z,101851.27
2018-12-12T01:30:20.536Z,101852.34
2018-12-12T01:35:31.563Z,101852.06
2018-12-12T01:40:43.651Z,101856.98
2018-12-12T01:45:56.505Z,101863.20
2018-12-12T01:51:09.388Z,101863.82
2018-12-12T01:56:22.309Z,101869.67
2018-12-12T02:01:31.085Z,101868.98
2018-12-12T02:06:42.214Z,101865.48
2018-12-12T02:11:54.331Z,101863.75
2018-12-12T02:17:05.294Z,101870.95
2018-12-12T02:22:16.434Z,101872.16
2018-12-12T02:27:29.341Z,101873.81
2018-12-12T02:32:41.584Z,101872.89
2018-12-12T02:37:52.496Z,101865.48
2018-12-12T02:43:06.802Z,101869.83
2018-12-12T02:48:17.841Z,101861.08
2018-12-12T02:50:47.209Z,101866.86
2018-12-12T02:56:00.307Z,101867.51
2018-12-12T03:01:12.357Z,101873.33
2018-12-12T03:06:23.818Z,101882.50
2018-12-12T03:11:36.315Z,101883.52
2018-12-12T03:16:47.626Z,101894.31
2018-12-12T03:19:16.991Z,101889.20
2018-12-12T03:24:31.118Z,101891.37
2018-12-12T03:29:42.353Z,101894.98
2018-12-12T03:34:54.364Z,101889.37
2018-12-12T03:40:07.120Z,101879.55
2018-12-12T03:45:19.682Z,101883.52
2018-12-12T03:50:31.789Z,101894.74
2018-12-12T03:55:42.794Z,101884.88
2018-12-12T03:58:12.205Z,101890.35
2018-12-12T04:03:24.429Z,101891.14
2018-12-12T04:08:35.585Z,101895.41
2018-12-12T04:13:47.759Z,101884.86
2018-12-12T04:18:59.333Z,101882.62
2018-12-12T04:21:28.736Z,101889.92
2018-12-12T04:26:39.711Z,101884.72
2018-12-12T04:31:51.648Z,101886.55
2018-12-12T04:37:03.520Z,101875.45
2018-12-12T04:42:15.507Z,101886.58
2018-12-12T04:47:26.576Z,101870.73
2018-12-12T04:52:39.070Z,101876.83
2018-12-12T04:57:50.624Z,101875.06
2018-12-12T05:03:03.680Z,101875.17
2018-12-12T05:08:14.774Z,101883.42
2018-12-12T05:13:26.725Z,101888.11
2018-12-12T05:18:37.761Z,101893.25
2018-12-12T05:23:49.705Z,101887.65
2018-12-12T05:29:00.787Z,101884.55
2018-12-12T05:34:12.807Z,101890.83
2018-12-12T05:39:27.001Z,101892.33
2018-12-12T05:44:39.098Z,101892.95
2018-12-12T05:49:50.416Z,101890.52
2018-12-12T05:55:02.597Z,101898.91
2018-12-12T06:00:15.078Z,101896.53
2018-12-12T06:05:28.206Z,101900.98
2018-12-12T06:10:40.292Z,101908.45
2018-12-12T06:15:51.272Z,101911.22
2018-12-12T06:21:03.495Z,101913.96
2018-12-12T06:26:14.494Z,101921.50
2018-12-12T06:31:26.448Z,101918.91
2018-12-12T06:36:37.336Z,101928.55
2018-12-12T06:41:51.255Z,101935.75
2018-12-12T06:47:04.432Z,101929.05
2018-12-12T06:52:16.644Z,101941.41
2018-12-12T06:57:29.567Z,101948.73
2018-12-12T07:02:41.730Z,101944.89
2018-12-12T07:07:53.696Z,101948.27
2018-12-12T07:13:07.773Z,101948.27
2018-12-12T07:18:17.249Z,101946.02
2018-12-12T07:23:31.432Z,101947.91
2018-12-12T07:28:44.708Z,101954.88
2018-12-12T07:34:01.103Z,101953.31
2018-12-12T07:39:17.737Z,101957.39
2018-12-12T07:44:26.353Z,101953.19
2018-12-12T07:49:33.963Z,101968.43
2018-12-12T07:54:46.351Z,101959.19
2018-12-12T07:59:57.362Z,101972.73
2018-12-12T08:02:26.765Z,101966.80
2018-12-12T08:07:34.549Z,101970.55
2018-12-12T08:10:04.307Z,101974.53
2018-12-12T08:15:16.659Z,101973.95
2018-12-12T08:17:46.232Z,101975.78
2018-12-12T08:22:58.821Z,101982.98
2018-12-12T08:28:10.576Z,101978.20
2018-12-12T08:33:22.550Z,101971.17
2018-12-12T08:38:34.156Z,101973.80
2018-12-12T08:43:46.176Z,101982.70
2018-12-12T08:48:58.444Z,101988.22
2018-12-12T08:54:10.357Z,101988.78
2018-12-12T08:59:21.966Z,101985.89
2018-12-12T09:04:33.924Z,101978.95
2018-12-12T09:09:46.064Z,101986.17
2018-12-12T09:14:58.140Z,101990.24
2018-12-12T09:20:09.598Z,101989.59
2018-12-12T09:25:18.062Z,102001.55
2018-12-12T09:30:30.199Z,102006.33
2018-12-12T09:35:41.193Z,102002.71
2018-12-12T09:40:50.408Z,102008.63
2018-12-12T09:46:01.396Z,102004.77
2018-12-12T09:51:13.625Z,102006.68
2018-12-12T09:56:25.907Z,102006.74
2018-12-12T10:01:38.062Z,102009.31
2018-12-12T10:06:50.200Z,102014.89
2018-12-12T10:12:02.273Z,102014.08
2018-12-12T10:17:14.609Z,102015.36
2018-12-12T10:19:44.056Z,102021.45
2018-12-12T10:24:55.977Z,102013.84
2018-12-12T10:30:14.542Z,101999.39
2018-12-12T10:35:25.473Z,102001.91
2018-12-12T10:40:37.761Z,101997.16
2018-12-12T10:45:48.758Z,101992.97
2018-12-12T10:50:57.377Z,101992.30
2018-12-12T10:56:08.480Z,101984.34
2018-12-12T11:01:30.675Z,101982.14
2018-12-12T11:06:41.759Z,101980.94
2018-12-12T11:11:54.331Z,101972.22
2018-12-12T11:17:05.797Z,101965.95
2018-12-12T11:22:17.808Z,101958.30
2018-12-12T11:27:28.765Z,101960.84
2018-12-12T11:32:40.796Z,101957.05
2018-12-12T11:37:51.782Z,101951.89
2018-12-12T11:43:12.879Z,101951.88
2018-12-12T11:48:23.812Z,101940.59
2018-12-12T11:53:36.370Z,101944.64
2018-12-12T11:58:47.484Z,101919.34
2018-12-12T12:03:59.758Z,101926.14
2018-12-12T12:09:11.837Z,101910.38
2018-12-12T12:14:24.085Z,101914.39
2018-12-12T12:19:35.972Z,101901.66
2018-12-12T12:24:48.844Z,101904.58
2018-12-12T12:29:59.990Z,101911.83
2018-12-12T12:35:14.162Z,101910.25
2018-12-12T12:40:25.280Z,101905.81
2018-12-12T12:45:39.676Z,101899.72
2018-12-12T12:50:51.712Z,101904.05
2018-12-12T12:56:04.136Z,101900.00
2018-12-12T13:01:16.128Z,101887.84
2018-12-12T13:06:28.609Z,101882.98
2018-12-12T13:11:40.777Z,101884.08
2018-12-12T13:16:52.160Z,101877.52
2018-12-12T13:22:04.210Z,101870.11
2018-12-12T13:27:18.295Z,101866.16
2018-12-12T13:32:30.146Z,101869.16
2018-12-12T13:37:41.869Z,101858.30
2018-12-12T13:42:53.843Z,101850.05
2018-12-12T13:48:05.334Z,101850.05
2018-12-12T13:53:17.319Z,101846.94
2018-12-12T13:58:28.464Z,101842.17
2018-12-12T14:03:40.919Z,101840.05
2018-12-12T14:08:51.977Z,101842.05
2018-12-12T14:14:04.918Z,101835.59
2018-12-12T14:19:17.952Z,101836.52
2018-12-12T14:24:29.870Z,101833.02
2018-12-12T14:29:41.940Z,101831.27
2018-12-12T14:34:53.861Z,101830.39
2018-12-12T14:40:06.006Z,101828.64
2018-12-12T14:45:17.944Z,101833.26
2018-12-12T14:47:47.335Z,101827.59
2018-12-12T14:52:59.348Z,101825.33
2018-12-12T14:58:10.360Z,101827.48
2018-12-12T15:00:40.590Z,101833.37
2018-12-12T15:05:51.509Z,101829.87
2018-12-12T15:11:03.596Z,101835.02
2018-12-12T15:16:16.593Z,101837.48
2018-12-12T15:21:28.978Z,101840.82
2018-12-12T15:26:40.095Z,101846.21
2018-12-12T15:31:52.629Z,101842.92
2018-12-12T15:37:04.300Z,101839.75
2018-12-12T15:42:16.381Z,101843.74
2018-12-12T15:47:27.556Z,101844.91
2018-12-12T15:52:41.581Z,101847.58
2018-12-12T15:57:53.791Z,101846.70
2018-12-12T16:03:08.506Z,101853.31
2018-12-12T16:08:19.563Z,101858.70
2018-12-12T16:13:31.560Z,101856.53
2018-12-12T16:18:43.501Z,101858.92
2018-12-12T16:23:57.868Z,101852.80
2018-12-12T16:29:09.663Z,101854.81
2018-12-12T16:34:20.480Z,101855.60
2018-12-12T16:39:31.548Z,101861.48
2018-12-12T16:42:00.952Z,101862.66
2018-12-12T16:47:08.735Z,101857.94
2018-12-12T16:52:20.798Z,101862.42
2018-12-12T16:57:32.064Z,101872.09
2018-12-12T17:00:01.439Z,101872.43
2018-12-12T17:05:10.143Z,101871.02
2018-12-12T17:10:21.031Z,101874.41
2018-12-12T17:15:32.541Z,101871.44
2018-12-12T17:20:44.464Z,101873.41
2018-12-12T17:25:55.960Z,101870.37
2018-12-12T17:31:10.465Z,101868.17
2018-12-12T17:36:24.249Z,101870.46
2018-12-12T17:41:38.292Z,101860.59
2018-12-12T17:46:51.421Z,101852.92
2018-12-12T17:51:59.813Z,101852.14
2018-12-12T17:57:11.168Z,101859.44
2018-12-12T18:02:23.072Z,101851.68
2018-12-12T18:07:34.152Z,101864.53
2018-12-12T18:12:46.303Z,101861.56
2018-12-12T18:18:06.539Z,101855.03
2018-12-12T18:23:18.463Z,101857.23
2018-12-12T18:28:29.628Z,101863.51
2018-12-12T18:33:38.037Z,101859.65
2018-12-12T18:38:49.221Z,101856.77
2018-12-12T18:44:01.257Z,101854.39
2018-12-12T18:49:12.417Z,101853.13
2018-12-12T18:54:25.110Z,101855.66
2018-12-12T18:59:39.829Z,101850.37
2018-12-12T19:04:52.380Z,101850.43
2018-12-12T19:10:05.643Z,101849.57
2018-12-12T19:15:18.222Z,101854.21
2018-12-12T19:20:30.992Z,101845.53
2018-12-12T19:25:43.010Z,101853.94
2018-12-12T19:30:56.533Z,101846.16
2018-12-12T19:36:07.401Z,101836.95
2018-12-12T19:41:19.707Z,101839.52
2018-12-12T19:46:31.246Z,101841.80
2018-12-12T19:51:43.607Z,101841.97
2018-12-12T19:56:57.859Z,101841.80
2018-12-12T20:02:11.262Z,101839.50
2018-12-12T20:07:19.105Z,101843.08
2018-12-12T20:12:31.479Z,101845.27
2018-12-12T20:17:53.176Z,101846.95
2018-12-12T20:23:05.867Z,101844.23
2018-12-12T20:28:17.833Z,101837.58
2018-12-12T20:33:32.302Z,101841.62
2018-12-12T20:38:43.618Z,101842.59
2018-12-12T20:44:00.497Z,101848.89
2018-12-12T20:49:12.131Z,101852.33
2018-12-12T20:54:26.420Z,101852.98
2018-12-12T20:59:34.128Z,101856.44
2018-12-12T21:02:03.610Z,101851.83
2018-12-12T21:07:15.696Z,101856.17
2018-12-12T21:12:29.252Z,101849.80
2018-12-12T21:17:40.448Z,101844.27
2018-12-12T21:22:53.336Z,101846.91
2018-12-12T21:28:04.735Z,101836.95
2018-12-12T21:33:16.895Z,101836.89
2018-12-12T21:38:27.880Z,101829.66
2018-12-12T21:43:40.020Z,101825.70
2018-12-12T21:48:51.545Z,101818.92
2018-12-12T21:54:03.595Z,101820.47
2018-12-12T21:59:14.728Z,101810.10
2018-12-12T22:01:44.284Z,101806.74
2018-12-12T22:06:55.660Z,101800.36
2018-12-12T22:12:08.204Z,101800.76
2018-12-12T22:17:20.487Z,101800.36
2018-12-12T22:22:32.659Z,101786.27
2018-12-12T22:27:43.912Z,101782.36
2018-12-12T22:32:56.024Z,101788.73
2018-12-12T22:38:07.148Z,101787.09
2018-12-12T22:43:15.603Z,101784.05
2018-12-12T22:48:26.634Z,101787.04
2018-12-12T22:53:39.273Z,101795.23
2018-12-12T22:58:50.410Z,101783.30
2018-12-12T23:04:07.812Z,101772.54
2018-12-12T23:09:19.199Z,101771.25
2018-12-12T23:14:31.165Z,101769.36
2018-12-12T23:19:43.239Z,101762.85
2018-12-12T23:24:55.510Z,101760.28
2018-12-12T23:30:09.792Z,101756.39
2018-12-12T23:32:39.219Z,101760.68
2018-12-12T23:37:50.283Z,101752.08
2018-12-12T23:43:02.414Z,101748.67
2018-12-12T23:48:13.383Z,101743.95
2018-12-12T23:53:26.027Z,101745.17
2018-12-12T23:58:37.525Z,101740.98
